sensor_id;sensor_type;location;lat;lon;timestamp;temperature;humidity
13976;DHT22;7062;49.792;9.946;2023-04-08T00:00:23;8.10;99.90
13976;DHT22;7062;49.792;9.946;2023-04-08T00:02:48;8.10;99.90
13976;DHT22;7062;49.792;9.946;2023-04-08T00:05:15;8.20;99.90
13976;DHT22;7062;49.792;9.946;2023-04-08T00:07:40;8.20;99.90
13976;DHT22;7062;49.792;9.946;2023-04-08T00:10:07;8.10;99.90
13976;DHT22;7062;49.792;9.946;2023-04-08T00:12:32;8.10;99.90
13976;DHT22;7062;49.792;9.946;2023-04-08T00:14:58;8.00;99.90
13976;DHT22;7062;49.792;9.946;2023-04-08T00:17:24;7.90;99.90
13976;DHT22;7062;49.792;9.946;2023-04-08T00:19:50;7.90;99.90
13976;DHT22;7062;49.792;9.946;2023-04-08T00:22:15;7.90;99.90
13976;DHT22;7062;49.792;9.946;2023-04-08T00:24:41;8.00;99.90
13976;DHT22;7062;49.792;9.946;2023-04-08T00:27:07;7.90;99.90
13976;DHT22;7062;49.792;9.946;2023-04-08T00:29:33;8.00;99.90
13976;DHT22;7062;49.792;9.946;2023-04-08T00:31:58;8.00;99.90
13976;DHT22;7062;49.792;9.946;2023-04-08T00:34:24;8.00;99.90
13976;DHT22;7062;49.792;9.946;2023-04-08T00:36:50;7.90;99.90
13976;DHT22;7062;49.792;9.946;2023-04-08T00:39:16;7.80;99.90
13976;DHT22;7062;49.792;9.946;2023-04-08T00:41:42;7.70;99.90
13976;DHT22;7062;49.792;9.946;2023-04-08T00:44:07;7.70;99.90
13976;DHT22;7062;49.792;9.946;2023-04-08T00:46:35;7.70;99.90
13976;DHT22;7062;49.792;9.946;2023-04-08T00:49:02;7.60;99.90
13976;DHT22;7062;49.792;9.946;2023-04-08T00:51:28;7.50;99.90
13976;DHT22;7062;49.792;9.946;2023-04-08T00:53:55;7.50;99.90
13976;DHT22;7062;49.792;9.946;2023-04-08T00:56:22;7.50;99.90
13976;DHT22;7062;49.792;9.946;2023-04-08T00:58:48;7.50;99.90
13976;DHT22;7062;49.792;9.946;2023-04-08T01:01:24;7.50;99.90
13976;DHT22;7062;49.792;9.946;2023-04-08T01:06:37;7.40;99.90
13976;DHT22;7062;49.792;9.946;2023-04-08T01:09:08;7.50;99.90
13976;DHT22;7062;49.792;9.946;2023-04-08T01:11:34;7.50;99.90
13976;DHT22;7062;49.792;9.946;2023-04-08T01:14:04;7.40;99.90
13976;DHT22;7062;49.792;9.946;2023-04-08T01:16:32;7.30;99.90
13976;DHT22;7062;49.792;9.946;2023-04-08T01:18:59;7.40;99.90
13976;DHT22;7062;49.792;9.946;2023-04-08T01:21:26;7.40;99.90
13976;DHT22;7062;49.792;9.946;2023-04-08T01:24:20;7.50;99.90
13976;DHT22;7062;49.792;9.946;2023-04-08T01:26:47;7.40;99.90
13976;DHT22;7062;49.792;9.946;2023-04-08T01:29:14;7.40;99.90
13976;DHT22;7062;49.792;9.946;2023-04-08T01:31:40;7.30;99.90
13976;DHT22;7062;49.792;9.946;2023-04-08T01:34:07;7.30;99.90
13976;DHT22;7062;49.792;9.946;2023-04-08T01:36:34;7.20;99.90
13976;DHT22;7062;49.792;9.946;2023-04-08T01:39:02;7.20;99.90
13976;DHT22;7062;49.792;9.946;2023-04-08T01:41:30;7.20;99.90
13976;DHT22;7062;49.792;9.946;2023-04-08T01:43:58;7.20;99.90
13976;DHT22;7062;49.792;9.946;2023-04-08T01:46:26;7.20;99.90
13976;DHT22;7062;49.792;9.946;2023-04-08T01:48:52;7.10;99.90
13976;DHT22;7062;49.792;9.946;2023-04-08T01:51:18;7.00;99.90
13976;DHT22;7062;49.792;9.946;2023-04-08T01:53:44;7.00;99.90
13976;DHT22;7062;49.792;9.946;2023-04-08T01:56:14;7.00;99.90
13976;DHT22;7062;49.792;9.946;2023-04-08T01:58:47;7.00;99.90
13976;DHT22;7062;49.792;9.946;2023-04-08T02:01:17;7.00;99.90
13976;DHT22;7062;49.792;9.946;2023-04-08T02:03:46;6.90;99.90
13976;DHT22;7062;49.792;9.946;2023-04-08T02:06:12;6.90;99.90
13976;DHT22;7062;49.792;9.946;2023-04-08T02:08:37;7.00;99.90
13976;DHT22;7062;49.792;9.946;2023-04-08T02:11:03;7.00;99.90
13976;DHT22;7062;49.792;9.946;2023-04-08T02:13:30;7.00;99.90
13976;DHT22;7062;49.792;9.946;2023-04-08T02:16:03;6.90;99.90
13976;DHT22;7062;49.792;9.946;2023-04-08T02:18:31;6.80;99.90
13976;DHT22;7062;49.792;9.946;2023-04-08T02:21:08;6.80;99.90
13976;DHT22;7062;49.792;9.946;2023-04-08T02:23:38;6.70;99.90
13976;DHT22;7062;49.792;9.946;2023-04-08T02:26:07;6.60;99.90
13976;DHT22;7062;49.792;9.946;2023-04-08T02:28:34;6.70;99.90
13976;DHT22;7062;49.792;9.946;2023-04-08T02:31:01;6.70;99.90
13976;DHT22;7062;49.792;9.946;2023-04-08T02:33:28;6.80;99.90
13976;DHT22;7062;49.792;9.946;2023-04-08T02:35:55;6.80;99.90
13976;DHT22;7062;49.792;9.946;2023-04-08T02:38:21;6.70;99.90
13976;DHT22;7062;49.792;9.946;2023-04-08T02:40:49;6.80;99.90
13976;DHT22;7062;49.792;9.946;2023-04-08T02:43:15;6.80;99.90
13976;DHT22;7062;49.792;9.946;2023-04-08T02:45:42;6.80;99.90
13976;DHT22;7062;49.792;9.946;2023-04-08T02:48:08;6.70;99.90
13976;DHT22;7062;49.792;9.946;2023-04-08T02:50:34;6.70;99.90
13976;DHT22;7062;49.792;9.946;2023-04-08T02:53:00;6.70;99.90
13976;DHT22;7062;49.792;9.946;2023-04-08T02:55:25;6.70;99.90
13976;DHT22;7062;49.792;9.946;2023-04-08T02:57:51;6.60;99.90
13976;DHT22;7062;49.792;9.946;2023-04-08T03:00:17;6.60;99.90
13976;DHT22;7062;49.792;9.946;2023-04-08T03:02:42;6.50;99.90
13976;DHT22;7062;49.792;9.946;2023-04-08T03:05:08;6.60;99.90
13976;DHT22;7062;49.792;9.946;2023-04-08T03:07:35;6.50;99.90
13976;DHT22;7062;49.792;9.946;2023-04-08T03:10:01;6.40;99.90
13976;DHT22;7062;49.792;9.946;2023-04-08T03:12:26;6.40;99.90
13976;DHT22;7062;49.792;9.946;2023-04-08T03:14:52;6.40;99.90
13976;DHT22;7062;49.792;9.946;2023-04-08T03:17:19;6.30;99.90
13976;DHT22;7062;49.792;9.946;2023-04-08T03:19:44;6.30;99.90
13976;DHT22;7062;49.792;9.946;2023-04-08T03:22:10;6.20;99.90
13976;DHT22;7062;49.792;9.946;2023-04-08T03:24:36;6.20;99.90
13976;DHT22;7062;49.792;9.946;2023-04-08T03:27:02;6.30;99.90
13976;DHT22;7062;49.792;9.946;2023-04-08T03:29:28;6.30;99.90
13976;DHT22;7062;49.792;9.946;2023-04-08T03:31:54;6.40;99.90
13976;DHT22;7062;49.792;9.946;2023-04-08T03:34:19;6.50;99.90
13976;DHT22;7062;49.792;9.946;2023-04-08T03:36:45;6.60;99.90
13976;DHT22;7062;49.792;9.946;2023-04-08T03:39:11;6.80;99.90
13976;DHT22;7062;49.792;9.946;2023-04-08T03:41:36;6.90;99.90
13976;DHT22;7062;49.792;9.946;2023-04-08T03:44:02;6.80;99.90
13976;DHT22;7062;49.792;9.946;2023-04-08T03:46:28;6.60;99.90
13976;DHT22;7062;49.792;9.946;2023-04-08T03:48:53;6.40;99.90
13976;DHT22;7062;49.792;9.946;2023-04-08T03:51:19;6.50;99.90
13976;DHT22;7062;49.792;9.946;2023-04-08T03:53:44;6.50;99.90
13976;DHT22;7062;49.792;9.946;2023-04-08T03:56:11;6.60;99.90
13976;DHT22;7062;49.792;9.946;2023-04-08T03:58:36;6.60;99.90
13976;DHT22;7062;49.792;9.946;2023-04-08T04:01:02;6.50;99.90
13976;DHT22;7062;49.792;9.946;2023-04-08T04:03:28;6.60;99.90
13976;DHT22;7062;49.792;9.946;2023-04-08T04:05:53;6.60;99.90
13976;DHT22;7062;49.792;9.946;2023-04-08T04:08:19;6.50;99.90
13976;DHT22;7062;49.792;9.946;2023-04-08T04:10:45;6.40;99.90
13976;DHT22;7062;49.792;9.946;2023-04-08T04:13:10;6.50;99.90
13976;DHT22;7062;49.792;9.946;2023-04-08T04:15:39;6.30;99.90
13976;DHT22;7062;49.792;9.946;2023-04-08T04:18:06;6.30;99.90
13976;DHT22;7062;49.792;9.946;2023-04-08T04:20:32;6.30;99.90
13976;DHT22;7062;49.792;9.946;2023-04-08T04:22:57;6.40;99.90
13976;DHT22;7062;49.792;9.946;2023-04-08T04:25:23;6.30;99.90
13976;DHT22;7062;49.792;9.946;2023-04-08T04:27:49;6.30;99.90
13976;DHT22;7062;49.792;9.946;2023-04-08T04:30:15;6.30;99.90
13976;DHT22;7062;49.792;9.946;2023-04-08T04:32:41;6.20;99.90
13976;DHT22;7062;49.792;9.946;2023-04-08T04:35:11;6.30;99.90
13976;DHT22;7062;49.792;9.946;2023-04-08T04:37:37;6.30;99.90
13976;DHT22;7062;49.792;9.946;2023-04-08T04:40:03;6.30;99.90
13976;DHT22;7062;49.792;9.946;2023-04-08T04:42:29;6.30;99.90
13976;DHT22;7062;49.792;9.946;2023-04-08T04:44:55;6.40;99.90
13976;DHT22;7062;49.792;9.946;2023-04-08T04:47:21;6.40;99.90
13976;DHT22;7062;49.792;9.946;2023-04-08T04:49:46;6.30;99.90
13976;DHT22;7062;49.792;9.946;2023-04-08T04:52:12;6.30;99.90
13976;DHT22;7062;49.792;9.946;2023-04-08T04:54:38;6.30;99.90
13976;DHT22;7062;49.792;9.946;2023-04-08T04:57:03;6.30;99.90
13976;DHT22;7062;49.792;9.946;2023-04-08T04:59:29;6.30;99.90
13976;DHT22;7062;49.792;9.946;2023-04-08T05:01:55;6.40;99.90
13976;DHT22;7062;49.792;9.946;2023-04-08T05:04:24;6.60;99.90
13976;DHT22;7062;49.792;9.946;2023-04-08T05:06:50;6.70;99.90
13976;DHT22;7062;49.792;9.946;2023-04-08T05:09:16;6.70;99.90
13976;DHT22;7062;49.792;9.946;2023-04-08T05:11:42;6.80;99.90
13976;DHT22;7062;49.792;9.946;2023-04-08T05:14:07;6.70;99.90
13976;DHT22;7062;49.792;9.946;2023-04-08T05:16:34;6.60;99.90
13976;DHT22;7062;49.792;9.946;2023-04-08T05:18:59;6.70;99.90
13976;DHT22;7062;49.792;9.946;2023-04-08T05:21:25;6.70;99.90
13976;DHT22;7062;49.792;9.946;2023-04-08T05:23:52;6.80;99.90
13976;DHT22;7062;49.792;9.946;2023-04-08T05:26:22;6.80;99.90
13976;DHT22;7062;49.792;9.946;2023-04-08T05:28:48;6.90;99.90
13976;DHT22;7062;49.792;9.946;2023-04-08T05:31:18;6.90;99.90
13976;DHT22;7062;49.792;9.946;2023-04-08T05:33:44;6.90;99.90
13976;DHT22;7062;49.792;9.946;2023-04-08T05:36:11;7.00;99.90
13976;DHT22;7062;49.792;9.946;2023-04-08T05:38:37;7.20;99.90
13976;DHT22;7062;49.792;9.946;2023-04-08T05:41:03;7.10;99.90
13976;DHT22;7062;49.792;9.946;2023-04-08T05:43:28;7.00;99.90
13976;DHT22;7062;49.792;9.946;2023-04-08T05:45:54;7.00;99.90
13976;DHT22;7062;49.792;9.946;2023-04-08T05:48:20;7.00;99.90
13976;DHT22;7062;49.792;9.946;2023-04-08T05:50:46;7.00;99.90
13976;DHT22;7062;49.792;9.946;2023-04-08T05:53:13;7.10;99.90
13976;DHT22;7062;49.792;9.946;2023-04-08T05:55:39;7.10;99.90
13976;DHT22;7062;49.792;9.946;2023-04-08T05:58:05;7.20;99.90
13976;DHT22;7062;49.792;9.946;2023-04-08T06:00:31;7.30;99.90
13976;DHT22;7062;49.792;9.946;2023-04-08T06:02:56;7.30;99.90
13976;DHT22;7062;49.792;9.946;2023-04-08T06:05:22;7.20;99.90
13976;DHT22;7062;49.792;9.946;2023-04-08T06:07:48;7.30;99.90
13976;DHT22;7062;49.792;9.946;2023-04-08T06:10:13;7.50;99.90
13976;DHT22;7062;49.792;9.946;2023-04-08T06:12:39;7.60;99.90
13976;DHT22;7062;49.792;9.946;2023-04-08T06:15:06;7.60;99.90
13976;DHT22;7062;49.792;9.946;2023-04-08T06:17:34;7.70;99.90
13976;DHT22;7062;49.792;9.946;2023-04-08T06:20:00;7.90;99.90
13976;DHT22;7062;49.792;9.946;2023-04-08T06:22:26;7.80;99.90
13976;DHT22;7062;49.792;9.946;2023-04-08T06:24:51;7.60;99.90
13976;DHT22;7062;49.792;9.946;2023-04-08T06:27:17;7.50;99.90
13976;DHT22;7062;49.792;9.946;2023-04-08T06:29:43;7.50;99.90
13976;DHT22;7062;49.792;9.946;2023-04-08T06:32:08;7.50;99.90
13976;DHT22;7062;49.792;9.946;2023-04-08T06:34:34;7.50;99.90
13976;DHT22;7062;49.792;9.946;2023-04-08T06:37:00;7.50;99.90
13976;DHT22;7062;49.792;9.946;2023-04-08T06:39:25;7.50;99.90
13976;DHT22;7062;49.792;9.946;2023-04-08T06:41:51;7.50;99.90
13976;DHT22;7062;49.792;9.946;2023-04-08T06:44:18;7.40;99.90
13976;DHT22;7062;49.792;9.946;2023-04-08T06:46:44;7.50;99.90
13976;DHT22;7062;49.792;9.946;2023-04-08T06:49:11;7.70;99.90
13976;DHT22;7062;49.792;9.946;2023-04-08T06:51:37;7.80;99.90
13976;DHT22;7062;49.792;9.946;2023-04-08T06:54:03;7.90;99.90
13976;DHT22;7062;49.792;9.946;2023-04-08T06:56:28;7.90;99.90
13976;DHT22;7062;49.792;9.946;2023-04-08T06:58:54;8.10;99.90
13976;DHT22;7062;49.792;9.946;2023-04-08T07:01:19;8.10;99.90
13976;DHT22;7062;49.792;9.946;2023-04-08T07:03:45;8.30;99.90
13976;DHT22;7062;49.792;9.946;2023-04-08T07:06:11;8.30;99.90
13976;DHT22;7062;49.792;9.946;2023-04-08T07:08:36;8.30;99.90
13976;DHT22;7062;49.792;9.946;2023-04-08T07:11:03;8.50;99.90
13976;DHT22;7062;49.792;9.946;2023-04-08T07:13:29;8.60;99.90
13976;DHT22;7062;49.792;9.946;2023-04-08T07:15:55;8.60;99.90
13976;DHT22;7062;49.792;9.946;2023-04-08T07:18:20;8.40;99.90
13976;DHT22;7062;49.792;9.946;2023-04-08T07:20:50;8.60;99.90
13976;DHT22;7062;49.792;9.946;2023-04-08T07:23:17;8.60;99.90
13976;DHT22;7062;49.792;9.946;2023-04-08T07:25:43;8.70;99.90
13976;DHT22;7062;49.792;9.946;2023-04-08T07:28:08;8.90;99.90
13976;DHT22;7062;49.792;9.946;2023-04-08T07:30:34;9.00;99.90
13976;DHT22;7062;49.792;9.946;2023-04-08T07:32:59;8.90;99.90
13976;DHT22;7062;49.792;9.946;2023-04-08T07:35:25;8.90;99.90
13976;DHT22;7062;49.792;9.946;2023-04-08T07:37:52;8.90;99.90
13976;DHT22;7062;49.792;9.946;2023-04-08T07:40:18;8.90;99.90
13976;DHT22;7062;49.792;9.946;2023-04-08T07:42:43;8.70;99.90
13976;DHT22;7062;49.792;9.946;2023-04-08T07:45:09;8.60;99.90
13976;DHT22;7062;49.792;9.946;2023-04-08T07:47:35;8.70;99.90
13976;DHT22;7062;49.792;9.946;2023-04-08T07:50:02;8.60;99.90
13976;DHT22;7062;49.792;9.946;2023-04-08T07:52:29;8.70;99.90
13976;DHT22;7062;49.792;9.946;2023-04-08T07:54:55;8.80;99.90
13976;DHT22;7062;49.792;9.946;2023-04-08T07:57:21;9.00;99.90
13976;DHT22;7062;49.792;9.946;2023-04-08T07:59:46;9.10;99.90
13976;DHT22;7062;49.792;9.946;2023-04-08T08:02:12;9.10;99.90
13976;DHT22;7062;49.792;9.946;2023-04-08T08:04:37;9.20;99.90
13976;DHT22;7062;49.792;9.946;2023-04-08T08:07:03;9.10;99.90
13976;DHT22;7062;49.792;9.946;2023-04-08T08:09:29;9.30;99.90
13976;DHT22;7062;49.792;9.946;2023-04-08T08:11:54;9.20;99.90
13976;DHT22;7062;49.792;9.946;2023-04-08T08:14:20;9.10;99.90
13976;DHT22;7062;49.792;9.946;2023-04-08T08:16:46;9.20;99.90
13976;DHT22;7062;49.792;9.946;2023-04-08T08:19:12;9.20;99.90
13976;DHT22;7062;49.792;9.946;2023-04-08T08:21:38;9.10;99.90
13976;DHT22;7062;49.792;9.946;2023-04-08T08:24:05;9.10;99.90
13976;DHT22;7062;49.792;9.946;2023-04-08T08:26:33;9.20;99.90
13976;DHT22;7062;49.792;9.946;2023-04-08T08:28:58;9.50;99.90
13976;DHT22;7062;49.792;9.946;2023-04-08T08:31:24;9.60;99.90
13976;DHT22;7062;49.792;9.946;2023-04-08T08:33:49;9.70;99.90
13976;DHT22;7062;49.792;9.946;2023-04-08T08:36:15;9.70;99.90
13976;DHT22;7062;49.792;9.946;2023-04-08T08:38:42;9.90;99.90
13976;DHT22;7062;49.792;9.946;2023-04-08T08:41:07;9.70;99.90
13976;DHT22;7062;49.792;9.946;2023-04-08T08:43:33;9.60;99.90
13976;DHT22;7062;49.792;9.946;2023-04-08T08:46:00;9.50;99.90
13976;DHT22;7062;49.792;9.946;2023-04-08T08:48:26;9.50;99.90
13976;DHT22;7062;49.792;9.946;2023-04-08T08:50:51;9.60;99.90
13976;DHT22;7062;49.792;9.946;2023-04-08T08:53:17;9.60;99.90
13976;DHT22;7062;49.792;9.946;2023-04-08T08:55:44;9.50;99.90
13976;DHT22;7062;49.792;9.946;2023-04-08T08:58:09;9.60;99.90
13976;DHT22;7062;49.792;9.946;2023-04-08T09:00:36;9.60;99.90
13976;DHT22;7062;49.792;9.946;2023-04-08T09:03:19;9.60;99.90
13976;DHT22;7062;49.792;9.946;2023-04-08T09:05:54;9.60;99.90
13976;DHT22;7062;49.792;9.946;2023-04-08T09:08:24;9.60;99.90
13976;DHT22;7062;49.792;9.946;2023-04-08T09:10:51;9.80;99.90
13976;DHT22;7062;49.792;9.946;2023-04-08T09:13:16;9.80;99.90
13976;DHT22;7062;49.792;9.946;2023-04-08T09:16:03;9.90;99.90
13976;DHT22;7062;49.792;9.946;2023-04-08T09:18:30;10.20;99.90
13976;DHT22;7062;49.792;9.946;2023-04-08T09:20:59;10.50;99.90
13976;DHT22;7062;49.792;9.946;2023-04-08T09:26:15;11.00;99.90
13976;DHT22;7062;49.792;9.946;2023-04-08T09:28:43;11.70;99.90
13976;DHT22;7062;49.792;9.946;2023-04-08T09:31:23;12.20;99.90
13976;DHT22;7062;49.792;9.946;2023-04-08T09:33:57;12.40;99.90
13976;DHT22;7062;49.792;9.946;2023-04-08T09:36:23;12.40;99.90
13976;DHT22;7062;49.792;9.946;2023-04-08T09:38:52;12.60;99.90
13976;DHT22;7062;49.792;9.946;2023-04-08T09:41:19;12.60;99.90
13976;DHT22;7062;49.792;9.946;2023-04-08T09:43:55;12.80;99.90
13976;DHT22;7062;49.792;9.946;2023-04-08T09:46:31;13.00;99.90
13976;DHT22;7062;49.792;9.946;2023-04-08T09:51:31;13.10;99.90
13976;DHT22;7062;49.792;9.946;2023-04-08T09:54:02;12.80;99.90
13976;DHT22;7062;49.792;9.946;2023-04-08T09:56:40;12.50;99.90
13976;DHT22;7062;49.792;9.946;2023-04-08T09:59:13;12.50;99.90
13976;DHT22;7062;49.792;9.946;2023-04-08T10:01:48;12.30;99.90
13976;DHT22;7062;49.792;9.946;2023-04-08T10:04:19;12.20;99.90
13976;DHT22;7062;49.792;9.946;2023-04-08T10:06:50;12.00;99.90
13976;DHT22;7062;49.792;9.946;2023-04-08T10:09:21;12.10;99.90
13976;DHT22;7062;49.792;9.946;2023-04-08T10:11:47;12.20;99.90
13976;DHT22;7062;49.792;9.946;2023-04-08T10:14:13;12.30;99.90
13976;DHT22;7062;49.792;9.946;2023-04-08T10:16:38;12.40;99.90
13976;DHT22;7062;49.792;9.946;2023-04-08T10:19:37;12.40;99.90
13976;DHT22;7062;49.792;9.946;2023-04-08T10:27:55;12.40;99.90
13976;DHT22;7062;49.792;9.946;2023-04-08T10:32:56;12.50;99.90
13976;DHT22;7062;49.792;9.946;2023-04-08T10:35:29;12.40;99.90
13976;DHT22;7062;49.792;9.946;2023-04-08T10:37:56;12.30;99.90
13976;DHT22;7062;49.792;9.946;2023-04-08T10:40:23;12.20;99.90
13976;DHT22;7062;49.792;9.946;2023-04-08T10:42:58;12.10;99.90
13976;DHT22;7062;49.792;9.946;2023-04-08T10:45:25;12.00;99.90
13976;DHT22;7062;49.792;9.946;2023-04-08T10:47:50;11.90;99.90
13976;DHT22;7062;49.792;9.946;2023-04-08T10:50:18;11.40;99.90
13976;DHT22;7062;49.792;9.946;2023-04-08T10:55:13;11.60;99.90
13976;DHT22;7062;49.792;9.946;2023-04-08T10:57:38;11.80;99.90
13976;DHT22;7062;49.792;9.946;2023-04-08T11:00:10;12.00;99.90
13976;DHT22;7062;49.792;9.946;2023-04-08T11:02:39;12.10;99.90
13976;DHT22;7062;49.792;9.946;2023-04-08T11:05:05;12.10;99.90
13976;DHT22;7062;49.792;9.946;2023-04-08T11:07:31;12.20;99.90
13976;DHT22;7062;49.792;9.946;2023-04-08T11:10:01;12.30;99.90
13976;DHT22;7062;49.792;9.946;2023-04-08T11:12:27;12.30;99.90
13976;DHT22;7062;49.792;9.946;2023-04-08T11:14:52;12.40;99.90
13976;DHT22;7062;49.792;9.946;2023-04-08T11:17:19;12.60;99.90
13976;DHT22;7062;49.792;9.946;2023-04-08T11:19:45;12.40;99.90
13976;DHT22;7062;49.792;9.946;2023-04-08T11:22:11;12.50;99.90
13976;DHT22;7062;49.792;9.946;2023-04-08T11:24:37;12.30;99.90
13976;DHT22;7062;49.792;9.946;2023-04-08T11:27:04;12.50;99.90
13976;DHT22;7062;49.792;9.946;2023-04-08T11:29:31;12.50;99.90
13976;DHT22;7062;49.792;9.946;2023-04-08T11:31:57;12.50;99.90
13976;DHT22;7062;49.792;9.946;2023-04-08T11:34:24;12.50;99.90
13976;DHT22;7062;49.792;9.946;2023-04-08T11:36:50;12.40;99.90
13976;DHT22;7062;49.792;9.946;2023-04-08T11:39:16;12.50;99.90
13976;DHT22;7062;49.792;9.946;2023-04-08T11:41:41;12.40;99.90
13976;DHT22;7062;49.792;9.946;2023-04-08T11:44:07;12.50;99.90
13976;DHT22;7062;49.792;9.946;2023-04-08T11:46:34;12.80;99.90
13976;DHT22;7062;49.792;9.946;2023-04-08T11:49:07;13.20;99.90
13976;DHT22;7062;49.792;9.946;2023-04-08T11:51:34;13.30;99.90
13976;DHT22;7062;49.792;9.946;2023-04-08T11:54:03;13.50;99.90
13976;DHT22;7062;49.792;9.946;2023-04-08T11:56:30;13.50;99.90
13976;DHT22;7062;49.792;9.946;2023-04-08T11:58:57;13.60;99.90
13976;DHT22;7062;49.792;9.946;2023-04-08T12:01:23;13.50;99.90
13976;DHT22;7062;49.792;9.946;2023-04-08T12:03:59;13.30;99.90
13976;DHT22;7062;49.792;9.946;2023-04-08T12:06:25;13.20;99.90
13976;DHT22;7062;49.792;9.946;2023-04-08T12:08:52;13.20;99.90
13976;DHT22;7062;49.792;9.946;2023-04-08T12:11:18;13.20;99.90
13976;DHT22;7062;49.792;9.946;2023-04-08T12:13:44;13.10;99.90
13976;DHT22;7062;49.792;9.946;2023-04-08T12:16:09;12.90;99.90
13976;DHT22;7062;49.792;9.946;2023-04-08T12:18:35;12.50;99.90
13976;DHT22;7062;49.792;9.946;2023-04-08T12:21:01;12.50;99.90
13976;DHT22;7062;49.792;9.946;2023-04-08T12:23:27;12.20;99.90
13976;DHT22;7062;49.792;9.946;2023-04-08T12:25:52;12.20;99.90
13976;DHT22;7062;49.792;9.946;2023-04-08T12:28:18;12.50;99.90
13976;DHT22;7062;49.792;9.946;2023-04-08T12:30:44;12.30;99.90
13976;DHT22;7062;49.792;9.946;2023-04-08T12:33:11;12.20;99.90
13976;DHT22;7062;49.792;9.946;2023-04-08T12:35:36;12.00;99.90
13976;DHT22;7062;49.792;9.946;2023-04-08T12:38:02;11.90;99.90
13976;DHT22;7062;49.792;9.946;2023-04-08T12:40:27;11.90;99.90
13976;DHT22;7062;49.792;9.946;2023-04-08T12:42:53;11.90;99.90
13976;DHT22;7062;49.792;9.946;2023-04-08T12:45:19;11.90;99.90
13976;DHT22;7062;49.792;9.946;2023-04-08T12:47:45;11.90;99.90
13976;DHT22;7062;49.792;9.946;2023-04-08T12:50:11;11.90;99.90
13976;DHT22;7062;49.792;9.946;2023-04-08T12:52:37;11.90;99.90
13976;DHT22;7062;49.792;9.946;2023-04-08T12:55:03;12.00;99.90
13976;DHT22;7062;49.792;9.946;2023-04-08T12:57:29;12.10;99.90
13976;DHT22;7062;49.792;9.946;2023-04-08T12:59:56;12.10;99.90
13976;DHT22;7062;49.792;9.946;2023-04-08T13:02:22;12.10;99.90
13976;DHT22;7062;49.792;9.946;2023-04-08T13:04:49;12.00;99.90
13976;DHT22;7062;49.792;9.946;2023-04-08T13:07:17;12.00;99.90
13976;DHT22;7062;49.792;9.946;2023-04-08T13:09:43;12.00;99.90
13976;DHT22;7062;49.792;9.946;2023-04-08T13:12:09;12.00;99.90
13976;DHT22;7062;49.792;9.946;2023-04-08T13:14:36;12.00;99.90
13976;DHT22;7062;49.792;9.946;2023-04-08T13:17:02;12.00;99.90
13976;DHT22;7062;49.792;9.946;2023-04-08T13:19:28;12.00;99.90
13976;DHT22;7062;49.792;9.946;2023-04-08T13:21:54;12.00;99.90
13976;DHT22;7062;49.792;9.946;2023-04-08T13:24:19;12.20;99.90
13976;DHT22;7062;49.792;9.946;2023-04-08T13:26:45;12.50;99.90
13976;DHT22;7062;49.792;9.946;2023-04-08T13:29:10;12.90;99.90
13976;DHT22;7062;49.792;9.946;2023-04-08T13:31:36;13.20;99.90
13976;DHT22;7062;49.792;9.946;2023-04-08T13:34:02;13.60;99.90
13976;DHT22;7062;49.792;9.946;2023-04-08T13:36:27;13.80;99.90
13976;DHT22;7062;49.792;9.946;2023-04-08T13:38:53;13.60;99.90
13976;DHT22;7062;49.792;9.946;2023-04-08T13:41:19;13.60;99.90
13976;DHT22;7062;49.792;9.946;2023-04-08T13:43:49;13.60;99.90
13976;DHT22;7062;49.792;9.946;2023-04-08T13:46:15;13.10;99.90
13976;DHT22;7062;49.792;9.946;2023-04-08T13:48:41;12.90;99.90
13976;DHT22;7062;49.792;9.946;2023-04-08T13:51:06;12.60;99.90
13976;DHT22;7062;49.792;9.946;2023-04-08T13:53:32;12.70;99.90
13976;DHT22;7062;49.792;9.946;2023-04-08T13:55:58;12.70;99.90
13976;DHT22;7062;49.792;9.946;2023-04-08T13:58:24;12.50;99.90
13976;DHT22;7062;49.792;9.946;2023-04-08T14:00:51;12.40;99.90
13976;DHT22;7062;49.792;9.946;2023-04-08T14:03:16;12.30;99.90
13976;DHT22;7062;49.792;9.946;2023-04-08T14:05:42;12.20;99.90
13976;DHT22;7062;49.792;9.946;2023-04-08T14:08:08;12.30;99.90
13976;DHT22;7062;49.792;9.946;2023-04-08T14:10:34;12.30;99.90
13976;DHT22;7062;49.792;9.946;2023-04-08T14:12:59;12.30;99.90
13976;DHT22;7062;49.792;9.946;2023-04-08T14:15:25;12.40;99.90
13976;DHT22;7062;49.792;9.946;2023-04-08T14:17:52;12.40;99.90
13976;DHT22;7062;49.792;9.946;2023-04-08T14:20:17;12.50;99.90
13976;DHT22;7062;49.792;9.946;2023-04-08T14:22:43;12.60;99.90
13976;DHT22;7062;49.792;9.946;2023-04-08T14:25:08;12.70;99.90
13976;DHT22;7062;49.792;9.946;2023-04-08T14:27:34;12.70;99.90
13976;DHT22;7062;49.792;9.946;2023-04-08T14:30:00;12.60;99.90
13976;DHT22;7062;49.792;9.946;2023-04-08T14:32:26;12.60;99.90
13976;DHT22;7062;49.792;9.946;2023-04-08T14:34:51;12.40;99.90
13976;DHT22;7062;49.792;9.946;2023-04-08T14:37:17;12.40;99.90
13976;DHT22;7062;49.792;9.946;2023-04-08T14:39:43;12.40;99.90
13976;DHT22;7062;49.792;9.946;2023-04-08T14:42:09;12.40;99.90
13976;DHT22;7062;49.792;9.946;2023-04-08T14:44:34;12.40;99.90
13976;DHT22;7062;49.792;9.946;2023-04-08T14:47:00;12.40;99.90
13976;DHT22;7062;49.792;9.946;2023-04-08T14:49:26;12.50;99.90
13976;DHT22;7062;49.792;9.946;2023-04-08T14:51:52;12.50;99.90
13976;DHT22;7062;49.792;9.946;2023-04-08T14:54:17;12.60;99.90
13976;DHT22;7062;49.792;9.946;2023-04-08T14:56:43;12.50;99.90
13976;DHT22;7062;49.792;9.946;2023-04-08T14:59:09;12.50;99.90
13976;DHT22;7062;49.792;9.946;2023-04-08T15:01:35;12.60;99.90
13976;DHT22;7062;49.792;9.946;2023-04-08T15:04:01;12.80;99.90
13976;DHT22;7062;49.792;9.946;2023-04-08T15:06:27;13.00;99.90
13976;DHT22;7062;49.792;9.946;2023-04-08T15:08:52;13.00;99.90
13976;DHT22;7062;49.792;9.946;2023-04-08T15:11:18;13.00;99.90
13976;DHT22;7062;49.792;9.946;2023-04-08T15:13:45;13.10;99.90
13976;DHT22;7062;49.792;9.946;2023-04-08T15:16:11;13.10;99.90
13976;DHT22;7062;49.792;9.946;2023-04-08T15:18:36;13.20;99.90
13976;DHT22;7062;49.792;9.946;2023-04-08T15:21:02;13.20;99.90
13976;DHT22;7062;49.792;9.946;2023-04-08T15:23:28;13.20;99.90
13976;DHT22;7062;49.792;9.946;2023-04-08T15:25:55;13.30;99.90
13976;DHT22;7062;49.792;9.946;2023-04-08T15:28:22;13.40;99.90
13976;DHT22;7062;49.792;9.946;2023-04-08T15:30:50;13.40;99.90
13976;DHT22;7062;49.792;9.946;2023-04-08T15:33:16;13.70;99.90
13976;DHT22;7062;49.792;9.946;2023-04-08T15:35:44;14.50;99.90
13976;DHT22;7062;49.792;9.946;2023-04-08T15:38:11;15.60;99.90
13976;DHT22;7062;49.792;9.946;2023-04-08T15:40:37;17.00;99.90
13976;DHT22;7062;49.792;9.946;2023-04-08T15:43:02;17.10;99.90
13976;DHT22;7062;49.792;9.946;2023-04-08T15:45:28;16.80;99.90
13976;DHT22;7062;49.792;9.946;2023-04-08T15:47:54;15.90;99.90
13976;DHT22;7062;49.792;9.946;2023-04-08T15:50:20;15.00;99.90
13976;DHT22;7062;49.792;9.946;2023-04-08T15:52:45;14.20;99.90
13976;DHT22;7062;49.792;9.946;2023-04-08T15:55:11;13.70;99.90
13976;DHT22;7062;49.792;9.946;2023-04-08T15:57:37;13.40;99.90
13976;DHT22;7062;49.792;9.946;2023-04-08T16:00:10;13.00;99.90
13976;DHT22;7062;49.792;9.946;2023-04-08T16:02:36;12.90;99.90
13976;DHT22;7062;49.792;9.946;2023-04-08T16:05:01;12.70;99.90
13976;DHT22;7062;49.792;9.946;2023-04-08T16:07:27;12.70;99.90
13976;DHT22;7062;49.792;9.946;2023-04-08T16:09:53;12.70;99.90